Strona główna
METAR-TAF:

METAR-TAF

Lotnisko :

Port lotniczy Bergamo-Orio al Serio

Bergamo, Włochy

Szerokość geograficzna: 45-40N, Długość geograficzna: 009-42E, wysokość: 238 m

Aktualna obserwacja pogody

Raport powstał 19 minut temu, godzina 23:20 UTC
Wiatr 3 kt od wschodnio-północny wschód, zmienny między północno-północny wschód i wschód
Temperatura 21°C
Wilgotność 60%
Ciśnienie 1022 hPa
Widzialność 10 km lub więcej
Przerywane chmury na wysokości 6000 ft

METAR: LIME 122320Z 06003KT 030V090 9999 BKN060 21/13 Q1022 NOSIG

czas: 01:39 (23:39 UTC)

Prognoza

Raport powstał 39 minut temu, godzina 23:00 UTC
Prognoza ważna od 13 godzina 00 UTC do 13 godzina 24 UTC
Wiatr 6 kt z kierunków zmiennych
Widzialność 10 km lub więcej
Rozproszone chmury na wysokości 5000 ft

TAF: LIME 122300Z 1300/1324 VRB06KT 9999 SCT050

Obserwacja i prognoza pogody dla ponad 4000 lotnisk (raport METAR i TAF).

Dostępne stacje oznaczono żółtymi i czerwonymi punktami na mapie.

Najedź kursorem aby zobaczyć nazwę stacji.

Kliknij aby zobaczyć obserwacje i prognozy pogody.

Aby zmienić mapę: kliknij na zielony przycisk z czarnym krzyżykiem, aby powiększyć; na zielony przycisk z myślnikiem, aby pomniejszyć; na zielone strzałki, aby przejść do map sąsiednich.


METAR-TAF: